sensor_id;sensor_type;location;lat;lon;timestamp;P1;durP1;ratioP1;P2;durP2;ratioP2
14740;SDS011;7462;53.530;9.414;2022-09-01T00:00:25;1.20;;;0.80;;
14740;SDS011;7462;53.530;9.414;2022-09-01T00:02:55;0.77;;;0.77;;
14740;SDS011;7462;53.530;9.414;2022-09-01T00:05:23;1.23;;;0.70;;
14740;SDS011;7462;53.530;9.414;2022-09-01T00:07:52;1.23;;;0.70;;
14740;SDS011;7462;53.530;9.414;2022-09-01T00:10:20;1.07;;;0.90;;
14740;SDS011;7462;53.530;9.414;2022-09-01T00:12:48;1.33;;;0.73;;
14740;SDS011;7462;53.530;9.414;2022-09-01T00:15:16;0.80;;;0.60;;
14740;SDS011;7462;53.530;9.414;2022-09-01T00:17:46;1.33;;;0.90;;
14740;SDS011;7462;53.530;9.414;2022-09-01T00:20:14;2.03;;;0.93;;
14740;SDS011;7462;53.530;9.414;2022-09-01T00:22:46;0.77;;;0.73;;
14740;SDS011;7462;53.530;9.414;2022-09-01T00:25:14;1.00;;;0.90;;
14740;SDS011;7462;53.530;9.414;2022-09-01T00:27:45;2.00;;;0.90;;
14740;SDS011;7462;53.530;9.414;2022-09-01T00:30:13;1.10;;;0.90;;
14740;SDS011;7462;53.530;9.414;2022-09-01T00:32:41;1.47;;;1.00;;
14740;SDS011;7462;53.530;9.414;2022-09-01T00:35:13;1.00;;;0.80;;
14740;SDS011;7462;53.530;9.414;2022-09-01T00:37:43;0.80;;;0.80;;
14740;SDS011;7462;53.530;9.414;2022-09-01T00:40:12;1.00;;;0.70;;
14740;SDS011;7462;53.530;9.414;2022-09-01T00:42:42;1.10;;;0.60;;
14740;SDS011;7462;53.530;9.414;2022-09-01T00:45:11;1.20;;;1.00;;
14740;SDS011;7462;53.530;9.414;2022-09-01T00:47:40;1.47;;;0.90;;
14740;SDS011;7462;53.530;9.414;2022-09-01T00:50:09;0.80;;;0.70;;
14740;SDS011;7462;53.530;9.414;2022-09-01T00:52:42;0.80;;;0.70;;
14740;SDS011;7462;53.530;9.414;2022-09-01T00:55:14;1.40;;;0.90;;
14740;SDS011;7462;53.530;9.414;2022-09-01T00:57:44;0.73;;;0.70;;
14740;SDS011;7462;53.530;9.414;2022-09-01T01:00:14;1.17;;;0.80;;
14740;SDS011;7462;53.530;9.414;2022-09-01T01:02:46;0.60;;;0.60;;
14740;SDS011;7462;53.530;9.414;2022-09-01T01:05:14;0.90;;;0.73;;
14740;SDS011;7462;53.530;9.414;2022-09-01T01:07:44;0.80;;;0.70;;
14740;SDS011;7462;53.530;9.414;2022-09-01T01:10:13;0.97;;;0.83;;
14740;SDS011;7462;53.530;9.414;2022-09-01T01:12:43;1.27;;;0.93;;
14740;SDS011;7462;53.530;9.414;2022-09-01T01:15:12;0.77;;;0.77;;
14740;SDS011;7462;53.530;9.414;2022-09-01T01:17:42;0.90;;;0.80;;
14740;SDS011;7462;53.530;9.414;2022-09-01T01:20:10;1.10;;;0.77;;
14740;SDS011;7462;53.530;9.414;2022-09-01T01:23:02;2.03;;;0.77;;
14740;SDS011;7462;53.530;9.414;2022-09-01T01:25:39;0.87;;;0.80;;
14740;SDS011;7462;53.530;9.414;2022-09-01T01:28:12;0.90;;;0.90;;
14740;SDS011;7462;53.530;9.414;2022-09-01T01:30:42;0.87;;;0.87;;
14740;SDS011;7462;53.530;9.414;2022-09-01T01:33:14;1.00;;;0.80;;
14740;SDS011;7462;53.530;9.414;2022-09-01T01:35:44;1.10;;;0.87;;
14740;SDS011;7462;53.530;9.414;2022-09-01T01:38:13;1.70;;;0.90;;
14740;SDS011;7462;53.530;9.414;2022-09-01T01:40:43;1.63;;;0.90;;
14740;SDS011;7462;53.530;9.414;2022-09-01T01:43:11;1.10;;;0.90;;
14740;SDS011;7462;53.530;9.414;2022-09-01T01:45:47;1.97;;;1.00;;
14740;SDS011;7462;53.530;9.414;2022-09-01T01:48:21;0.93;;;0.73;;
14740;SDS011;7462;53.530;9.414;2022-09-01T01:50:51;2.43;;;0.70;;
14740;SDS011;7462;53.530;9.414;2022-09-01T01:53:21;1.13;;;0.90;;
14740;SDS011;7462;53.530;9.414;2022-09-01T01:55:52;0.77;;;0.77;;
14740;SDS011;7462;53.530;9.414;2022-09-01T01:58:22;0.93;;;0.90;;
14740;SDS011;7462;53.530;9.414;2022-09-01T02:00:52;2.00;;;0.80;;
14740;SDS011;7462;53.530;9.414;2022-09-01T02:03:22;1.07;;;0.93;;
14740;SDS011;7462;53.530;9.414;2022-09-01T02:05:54;1.10;;;0.90;;
14740;SDS011;7462;53.530;9.414;2022-09-01T02:08:23;1.20;;;1.03;;
14740;SDS011;7462;53.530;9.414;2022-09-01T02:10:54;1.23;;;1.00;;
14740;SDS011;7462;53.530;9.414;2022-09-01T02:13:23;2.70;;;1.17;;
14740;SDS011;7462;53.530;9.414;2022-09-01T02:15:57;1.70;;;1.20;;
14740;SDS011;7462;53.530;9.414;2022-09-01T02:18:28;3.40;;;1.20;;
14740;SDS011;7462;53.530;9.414;2022-09-01T02:21:00;2.00;;;1.07;;
14740;SDS011;7462;53.530;9.414;2022-09-01T02:23:29;1.77;;;1.07;;
14740;SDS011;7462;53.530;9.414;2022-09-01T02:25:59;1.30;;;1.20;;
14740;SDS011;7462;53.530;9.414;2022-09-01T02:28:46;1.20;;;1.10;;
14740;SDS011;7462;53.530;9.414;2022-09-01T02:31:24;1.20;;;1.10;;
14740;SDS011;7462;53.530;9.414;2022-09-01T02:33:55;1.27;;;1.17;;
14740;SDS011;7462;53.530;9.414;2022-09-01T02:36:24;1.27;;;1.17;;
14740;SDS011;7462;53.530;9.414;2022-09-01T02:38:52;1.30;;;1.07;;
14740;SDS011;7462;53.530;9.414;2022-09-01T02:41:24;1.73;;;1.13;;
14740;SDS011;7462;53.530;9.414;2022-09-01T02:43:57;1.63;;;1.10;;
14740;SDS011;7462;53.530;9.414;2022-09-01T02:46:28;1.67;;;1.47;;
14740;SDS011;7462;53.530;9.414;2022-09-01T02:48:57;1.40;;;1.10;;
14740;SDS011;7462;53.530;9.414;2022-09-01T02:51:26;1.37;;;1.10;;
14740;SDS011;7462;53.530;9.414;2022-09-01T02:53:54;1.20;;;1.10;;
14740;SDS011;7462;53.530;9.414;2022-09-01T02:56:24;1.30;;;1.20;;
14740;SDS011;7462;53.530;9.414;2022-09-01T02:58:53;1.30;;;1.20;;
14740;SDS011;7462;53.530;9.414;2022-09-01T03:01:24;1.30;;;1.20;;
14740;SDS011;7462;53.530;9.414;2022-09-01T03:03:56;2.27;;;1.30;;
14740;SDS011;7462;53.530;9.414;2022-09-01T03:06:27;1.30;;;1.20;;
14740;SDS011;7462;53.530;9.414;2022-09-01T03:09:00;1.13;;;1.10;;
14740;SDS011;7462;53.530;9.414;2022-09-01T03:11:31;1.33;;;1.23;;
14740;SDS011;7462;53.530;9.414;2022-09-01T03:14:00;3.20;;;1.37;;
14740;SDS011;7462;53.530;9.414;2022-09-01T03:16:28;1.30;;;1.20;;
14740;SDS011;7462;53.530;9.414;2022-09-01T03:18:57;1.27;;;1.17;;
14740;SDS011;7462;53.530;9.414;2022-09-01T03:21:26;1.20;;;1.10;;
14740;SDS011;7462;53.530;9.414;2022-09-01T03:23:54;1.47;;;1.20;;
14740;SDS011;7462;53.530;9.414;2022-09-01T03:26:23;1.30;;;1.20;;
14740;SDS011;7462;53.530;9.414;2022-09-01T03:28:55;1.20;;;1.10;;
14740;SDS011;7462;53.530;9.414;2022-09-01T03:31:24;1.10;;;1.00;;
14740;SDS011;7462;53.530;9.414;2022-09-01T03:33:58;1.10;;;1.10;;
14740;SDS011;7462;53.530;9.414;2022-09-01T03:36:31;1.30;;;1.10;;
14740;SDS011;7462;53.530;9.414;2022-09-01T03:39:00;1.30;;;1.00;;
14740;SDS011;7462;53.530;9.414;2022-09-01T03:41:30;2.53;;;0.90;;
14740;SDS011;7462;53.530;9.414;2022-09-01T03:44:00;1.30;;;0.97;;
14740;SDS011;7462;53.530;9.414;2022-09-01T03:46:30;2.50;;;1.00;;
14740;SDS011;7462;53.530;9.414;2022-09-01T03:49:03;1.37;;;1.10;;
14740;SDS011;7462;53.530;9.414;2022-09-01T03:51:35;1.20;;;1.10;;
14740;SDS011;7462;53.530;9.414;2022-09-01T03:54:06;1.97;;;1.00;;
14740;SDS011;7462;53.530;9.414;2022-09-01T03:56:34;1.47;;;0.90;;
14740;SDS011;7462;53.530;9.414;2022-09-01T03:59:12;2.40;;;1.30;;
14740;SDS011;7462;53.530;9.414;2022-09-01T04:01:44;1.30;;;1.20;;
14740;SDS011;7462;53.530;9.414;2022-09-01T04:04:14;1.37;;;1.27;;
14740;SDS011;7462;53.530;9.414;2022-09-01T04:06:43;1.27;;;1.10;;
14740;SDS011;7462;53.530;9.414;2022-09-01T04:09:13;1.20;;;1.10;;
14740;SDS011;7462;53.530;9.414;2022-09-01T04:11:43;1.27;;;1.17;;
14740;SDS011;7462;53.530;9.414;2022-09-01T04:14:15;1.20;;;1.10;;
14740;SDS011;7462;53.530;9.414;2022-09-01T04:16:47;1.43;;;1.33;;
14740;SDS011;7462;53.530;9.414;2022-09-01T04:19:33;2.30;;;1.20;;
14740;SDS011;7462;53.530;9.414;2022-09-01T04:22:06;1.83;;;1.20;;
14740;SDS011;7462;53.530;9.414;2022-09-01T04:24:40;1.47;;;1.30;;
14740;SDS011;7462;53.530;9.414;2022-09-01T04:27:12;1.30;;;1.20;;
14740;SDS011;7462;53.530;9.414;2022-09-01T04:29:42;1.23;;;1.13;;
14740;SDS011;7462;53.530;9.414;2022-09-01T04:32:11;1.60;;;1.20;;
14740;SDS011;7462;53.530;9.414;2022-09-01T04:34:45;1.30;;;1.20;;
14740;SDS011;7462;53.530;9.414;2022-09-01T04:37:15;1.50;;;1.40;;
14740;SDS011;7462;53.530;9.414;2022-09-01T04:39:49;2.07;;;1.30;;
14740;SDS011;7462;53.530;9.414;2022-09-01T04:42:23;2.03;;;1.40;;
14740;SDS011;7462;53.530;9.414;2022-09-01T04:44:54;1.63;;;1.30;;
14740;SDS011;7462;53.530;9.414;2022-09-01T04:47:28;2.03;;;1.17;;
14740;SDS011;7462;53.530;9.414;2022-09-01T04:50:03;1.43;;;1.33;;
14740;SDS011;7462;53.530;9.414;2022-09-01T04:52:41;2.87;;;1.60;;
14740;SDS011;7462;53.530;9.414;2022-09-01T04:55:20;2.60;;;1.83;;
14740;SDS011;7462;53.530;9.414;2022-09-01T04:57:50;3.13;;;1.60;;
14740;SDS011;7462;53.530;9.414;2022-09-01T05:00:20;1.57;;;1.47;;
14740;SDS011;7462;53.530;9.414;2022-09-01T05:02:49;2.03;;;1.40;;
14740;SDS011;7462;53.530;9.414;2022-09-01T05:05:20;2.60;;;2.00;;
14740;SDS011;7462;53.530;9.414;2022-09-01T05:07:49;2.10;;;1.60;;
14740;SDS011;7462;53.530;9.414;2022-09-01T05:10:21;1.70;;;1.40;;
14740;SDS011;7462;53.530;9.414;2022-09-01T05:13:09;1.00;;;1.00;;
14740;SDS011;7462;53.530;9.414;2022-09-01T05:15:39;1.47;;;1.10;;
14740;SDS011;7462;53.530;9.414;2022-09-01T05:18:12;1.10;;;1.00;;
14740;SDS011;7462;53.530;9.414;2022-09-01T05:20:42;1.50;;;1.40;;
14740;SDS011;7462;53.530;9.414;2022-09-01T05:23:11;2.10;;;1.40;;
14740;SDS011;7462;53.530;9.414;2022-09-01T05:25:40;1.30;;;1.20;;
14740;SDS011;7462;53.530;9.414;2022-09-01T05:28:09;1.67;;;1.40;;
14740;SDS011;7462;53.530;9.414;2022-09-01T05:30:40;2.13;;;1.23;;
14740;SDS011;7462;53.530;9.414;2022-09-01T05:33:08;2.47;;;1.20;;
14740;SDS011;7462;53.530;9.414;2022-09-01T05:35:38;1.70;;;1.57;;
14740;SDS011;7462;53.530;9.414;2022-09-01T05:38:10;1.83;;;1.70;;
14740;SDS011;7462;53.530;9.414;2022-09-01T05:40:41;1.70;;;1.57;;
14740;SDS011;7462;53.530;9.414;2022-09-01T05:43:11;3.23;;;1.77;;
14740;SDS011;7462;53.530;9.414;2022-09-01T05:45:42;1.80;;;1.30;;
14740;SDS011;7462;53.530;9.414;2022-09-01T05:48:30;1.67;;;1.53;;
14740;SDS011;7462;53.530;9.414;2022-09-01T05:51:03;1.50;;;1.33;;
14740;SDS011;7462;53.530;9.414;2022-09-01T05:53:48;2.03;;;1.23;;
14740;SDS011;7462;53.530;9.414;2022-09-01T05:56:17;3.53;;;1.30;;
14740;SDS011;7462;53.530;9.414;2022-09-01T05:58:46;2.60;;;1.50;;
14740;SDS011;7462;53.530;9.414;2022-09-01T06:01:37;3.70;;;1.70;;
14740;SDS011;7462;53.530;9.414;2022-09-01T06:04:07;2.63;;;1.47;;
14740;SDS011;7462;53.530;9.414;2022-09-01T06:06:37;2.17;;;1.37;;
14740;SDS011;7462;53.530;9.414;2022-09-01T06:09:29;3.17;;;1.47;;
14740;SDS011;7462;53.530;9.414;2022-09-01T06:11:58;2.87;;;1.70;;
14740;SDS011;7462;53.530;9.414;2022-09-01T06:14:27;2.27;;;1.30;;
14740;SDS011;7462;53.530;9.414;2022-09-01T06:16:56;2.93;;;1.40;;
14740;SDS011;7462;53.530;9.414;2022-09-01T06:19:26;1.40;;;1.30;;
14740;SDS011;7462;53.530;9.414;2022-09-01T06:21:58;2.20;;;1.67;;
14740;SDS011;7462;53.530;9.414;2022-09-01T06:24:27;1.73;;;1.50;;
14740;SDS011;7462;53.530;9.414;2022-09-01T06:26:55;2.97;;;1.60;;
14740;SDS011;7462;53.530;9.414;2022-09-01T06:29:24;1.60;;;1.30;;
14740;SDS011;7462;53.530;9.414;2022-09-01T06:31:53;2.13;;;1.43;;
14740;SDS011;7462;53.530;9.414;2022-09-01T06:34:23;1.83;;;1.40;;
14740;SDS011;7462;53.530;9.414;2022-09-01T06:36:51;2.27;;;1.40;;
14740;SDS011;7462;53.530;9.414;2022-09-01T06:39:20;1.60;;;1.30;;
14740;SDS011;7462;53.530;9.414;2022-09-01T06:41:51;3.33;;;1.57;;
14740;SDS011;7462;53.530;9.414;2022-09-01T06:44:25;4.27;;;1.50;;
14740;SDS011;7462;53.530;9.414;2022-09-01T06:47:01;2.40;;;1.23;;
14740;SDS011;7462;53.530;9.414;2022-09-01T06:49:31;2.87;;;1.80;;
14740;SDS011;7462;53.530;9.414;2022-09-01T06:52:02;1.80;;;1.30;;
14740;SDS011;7462;53.530;9.414;2022-09-01T06:54:31;2.07;;;1.20;;
14740;SDS011;7462;53.530;9.414;2022-09-01T06:57:02;1.90;;;1.20;;
14740;SDS011;7462;53.530;9.414;2022-09-01T06:59:50;3.27;;;1.13;;
14740;SDS011;7462;53.530;9.414;2022-09-01T07:02:21;2.10;;;1.10;;
14740;SDS011;7462;53.530;9.414;2022-09-01T07:05:13;3.20;;;1.10;;
14740;SDS011;7462;53.530;9.414;2022-09-01T07:08:05;1.90;;;0.87;;
14740;SDS011;7462;53.530;9.414;2022-09-01T07:10:54;1.40;;;1.10;;
14740;SDS011;7462;53.530;9.414;2022-09-01T07:13:44;3.30;;;1.23;;
14740;SDS011;7462;53.530;9.414;2022-09-01T07:16:33;1.30;;;1.10;;
14740;SDS011;7462;53.530;9.414;2022-09-01T07:19:19;1.70;;;1.00;;
14740;SDS011;7462;53.530;9.414;2022-09-01T07:21:54;1.87;;;1.17;;
14740;SDS011;7462;53.530;9.414;2022-09-01T07:24:46;1.60;;;0.97;;
14740;SDS011;7462;53.530;9.414;2022-09-01T07:27:48;1.57;;;0.80;;
14740;SDS011;7462;53.530;9.414;2022-09-01T07:30:18;2.27;;;1.10;;
14740;SDS011;7462;53.530;9.414;2022-09-01T07:32:50;1.57;;;0.90;;
14740;SDS011;7462;53.530;9.414;2022-09-01T07:35:20;1.43;;;0.93;;
14740;SDS011;7462;53.530;9.414;2022-09-01T07:37:52;2.00;;;0.90;;
14740;SDS011;7462;53.530;9.414;2022-09-01T07:40:41;1.30;;;0.90;;
14740;SDS011;7462;53.530;9.414;2022-09-01T07:43:50;1.10;;;0.80;;
14740;SDS011;7462;53.530;9.414;2022-09-01T07:46:40;1.10;;;1.00;;
14740;SDS011;7462;53.530;9.414;2022-09-01T07:49:14;1.17;;;0.90;;
14740;SDS011;7462;53.530;9.414;2022-09-01T07:52:03;1.30;;;0.80;;
14740;SDS011;7462;53.530;9.414;2022-09-01T07:54:36;2.90;;;0.70;;
14740;SDS011;7462;53.530;9.414;2022-09-01T07:57:05;1.53;;;0.67;;
14740;SDS011;7462;53.530;9.414;2022-09-01T07:59:34;1.77;;;0.80;;
14740;SDS011;7462;53.530;9.414;2022-09-01T08:02:25;2.10;;;0.90;;
14740;SDS011;7462;53.530;9.414;2022-09-01T08:04:53;1.43;;;0.70;;
14740;SDS011;7462;53.530;9.414;2022-09-01T08:07:22;3.10;;;0.90;;
14740;SDS011;7462;53.530;9.414;2022-09-01T08:09:51;1.10;;;0.70;;
14740;SDS011;7462;53.530;9.414;2022-09-01T08:12:26;1.40;;;0.80;;
14740;SDS011;7462;53.530;9.414;2022-09-01T08:14:55;1.93;;;0.70;;
14740;SDS011;7462;53.530;9.414;2022-09-01T08:17:44;1.17;;;0.67;;
14740;SDS011;7462;53.530;9.414;2022-09-01T08:20:22;0.87;;;0.60;;
14740;SDS011;7462;53.530;9.414;2022-09-01T08:22:54;1.07;;;0.70;;
14740;SDS011;7462;53.530;9.414;2022-09-01T08:25:28;1.13;;;0.60;;
14740;SDS011;7462;53.530;9.414;2022-09-01T08:27:58;1.80;;;0.80;;
14740;SDS011;7462;53.530;9.414;2022-09-01T08:30:28;1.67;;;0.60;;
14740;SDS011;7462;53.530;9.414;2022-09-01T08:32:57;0.67;;;0.50;;
14740;SDS011;7462;53.530;9.414;2022-09-01T08:35:37;1.10;;;0.47;;
14740;SDS011;7462;53.530;9.414;2022-09-01T08:38:06;2.37;;;0.70;;
14740;SDS011;7462;53.530;9.414;2022-09-01T08:40:36;2.10;;;0.60;;
14740;SDS011;7462;53.530;9.414;2022-09-01T08:43:08;0.90;;;0.50;;
14740;SDS011;7462;53.530;9.414;2022-09-01T08:45:45;0.80;;;0.50;;
14740;SDS011;7462;53.530;9.414;2022-09-01T08:48:17;1.90;;;0.50;;
14740;SDS011;7462;53.530;9.414;2022-09-01T08:51:09;0.40;;;0.40;;
14740;SDS011;7462;53.530;9.414;2022-09-01T08:53:58;0.90;;;0.57;;
14740;SDS011;7462;53.530;9.414;2022-09-01T08:56:33;1.43;;;0.70;;
14740;SDS011;7462;53.530;9.414;2022-09-01T08:59:04;1.40;;;0.70;;
14740;SDS011;7462;53.530;9.414;2022-09-01T09:02:04;2.00;;;0.70;;
14740;SDS011;7462;53.530;9.414;2022-09-01T09:04:50;1.30;;;0.77;;
14740;SDS011;7462;53.530;9.414;2022-09-01T09:07:30;1.37;;;0.70;;
14740;SDS011;7462;53.530;9.414;2022-09-01T09:10:16;0.90;;;0.60;;
14740;SDS011;7462;53.530;9.414;2022-09-01T09:12:51;0.70;;;0.60;;
14740;SDS011;7462;53.530;9.414;2022-09-01T09:15:31;1.47;;;0.53;;
14740;SDS011;7462;53.530;9.414;2022-09-01T09:18:06;0.50;;;0.50;;
14740;SDS011;7462;53.530;9.414;2022-09-01T09:21:01;1.63;;;0.67;;
14740;SDS011;7462;53.530;9.414;2022-09-01T09:23:37;1.67;;;0.40;;
14740;SDS011;7462;53.530;9.414;2022-09-01T09:26:10;2.17;;;0.60;;
14740;SDS011;7462;53.530;9.414;2022-09-01T09:28:48;0.73;;;0.50;;
14740;SDS011;7462;53.530;9.414;2022-09-01T09:31:29;0.87;;;0.80;;
14740;SDS011;7462;53.530;9.414;2022-09-01T09:34:02;0.60;;;0.57;;
14740;SDS011;7462;53.530;9.414;2022-09-01T09:36:32;0.83;;;0.60;;
14740;SDS011;7462;53.530;9.414;2022-09-01T09:39:09;0.93;;;0.60;;
14740;SDS011;7462;53.530;9.414;2022-09-01T09:41:39;1.17;;;0.60;;
14740;SDS011;7462;53.530;9.414;2022-09-01T09:44:18;1.33;;;0.50;;
14740;SDS011;7462;53.530;9.414;2022-09-01T09:46:51;0.80;;;0.50;;
14740;SDS011;7462;53.530;9.414;2022-09-01T09:49:21;1.63;;;0.50;;
14740;SDS011;7462;53.530;9.414;2022-09-01T09:52:13;2.20;;;0.50;;
14740;SDS011;7462;53.530;9.414;2022-09-01T09:57:31;0.90;;;0.50;;
14740;SDS011;7462;53.530;9.414;2022-09-01T10:00:14;1.87;;;0.50;;
14740;SDS011;7462;53.530;9.414;2022-09-01T10:02:54;1.80;;;0.57;;
14740;SDS011;7462;53.530;9.414;2022-09-01T10:05:28;1.57;;;0.80;;
14740;SDS011;7462;53.530;9.414;2022-09-01T10:08:02;0.73;;;0.50;;
14740;SDS011;7462;53.530;9.414;2022-09-01T10:10:36;1.60;;;0.50;;
14740;SDS011;7462;53.530;9.414;2022-09-01T10:13:07;1.93;;;0.60;;
14740;SDS011;7462;53.530;9.414;2022-09-01T10:15:42;1.90;;;0.60;;
14740;SDS011;7462;53.530;9.414;2022-09-01T10:18:17;1.27;;;0.60;;
14740;SDS011;7462;53.530;9.414;2022-09-01T10:20:55;2.17;;;0.70;;
14740;SDS011;7462;53.530;9.414;2022-09-01T10:23:27;0.60;;;0.50;;
14740;SDS011;7462;53.530;9.414;2022-09-01T10:25:59;1.33;;;0.50;;
14740;SDS011;7462;53.530;9.414;2022-09-01T10:28:36;0.83;;;0.60;;
14740;SDS011;7462;53.530;9.414;2022-09-01T10:31:17;1.27;;;0.70;;
14740;SDS011;7462;53.530;9.414;2022-09-01T10:33:46;1.17;;;0.90;;
14740;SDS011;7462;53.530;9.414;2022-09-01T10:36:16;1.67;;;0.70;;
14740;SDS011;7462;53.530;9.414;2022-09-01T10:38:45;3.60;;;0.60;;
14740;SDS011;7462;53.530;9.414;2022-09-01T10:41:43;0.77;;;0.60;;
14740;SDS011;7462;53.530;9.414;2022-09-01T10:44:26;1.27;;;0.67;;
14740;SDS011;7462;53.530;9.414;2022-09-01T10:47:01;1.57;;;0.67;;
14740;SDS011;7462;53.530;9.414;2022-09-01T10:55:22;0.80;;;0.60;;
14740;SDS011;7462;53.530;9.414;2022-09-01T10:57:56;1.03;;;0.67;;
14740;SDS011;7462;53.530;9.414;2022-09-01T11:00:54;0.60;;;0.60;;
14740;SDS011;7462;53.530;9.414;2022-09-01T11:06:33;1.00;;;0.77;;
14740;SDS011;7462;53.530;9.414;2022-09-01T11:10:05;2.97;;;0.70;;
14740;SDS011;7462;53.530;9.414;2022-09-01T11:13:14;1.10;;;0.40;;
14740;SDS011;7462;53.530;9.414;2022-09-01T11:16:23;1.73;;;0.50;;
14740;SDS011;7462;53.530;9.414;2022-09-01T11:19:23;0.83;;;0.73;;
14740;SDS011;7462;53.530;9.414;2022-09-01T11:22:10;1.10;;;0.60;;
14740;SDS011;7462;53.530;9.414;2022-09-01T11:24:46;2.33;;;0.70;;
14740;SDS011;7462;53.530;9.414;2022-09-01T11:27:55;0.97;;;0.67;;
14740;SDS011;7462;53.530;9.414;2022-09-01T11:30:31;1.20;;;0.97;;
14740;SDS011;7462;53.530;9.414;2022-09-01T11:33:26;1.37;;;0.60;;
14740;SDS011;7462;53.530;9.414;2022-09-01T11:36:06;1.13;;;0.63;;
14740;SDS011;7462;53.530;9.414;2022-09-01T11:38:42;0.50;;;0.50;;
14740;SDS011;7462;53.530;9.414;2022-09-01T11:41:19;1.17;;;0.50;;
14740;SDS011;7462;53.530;9.414;2022-09-01T11:43:51;1.33;;;0.70;;
14740;SDS011;7462;53.530;9.414;2022-09-01T11:46:24;1.10;;;0.80;;
14740;SDS011;7462;53.530;9.414;2022-09-01T11:48:55;1.63;;;0.50;;
14740;SDS011;7462;53.530;9.414;2022-09-01T11:51:26;1.43;;;0.57;;
14740;SDS011;7462;53.530;9.414;2022-09-01T11:53:57;0.80;;;0.60;;
14740;SDS011;7462;53.530;9.414;2022-09-01T11:56:27;1.10;;;0.57;;
14740;SDS011;7462;53.530;9.414;2022-09-01T11:58:55;0.70;;;0.50;;
14740;SDS011;7462;53.530;9.414;2022-09-01T12:01:29;1.93;;;0.60;;
14740;SDS011;7462;53.530;9.414;2022-09-01T12:06:51;0.70;;;0.50;;
14740;SDS011;7462;53.530;9.414;2022-09-01T12:09:21;0.60;;;0.60;;
14740;SDS011;7462;53.530;9.414;2022-09-01T12:11:59;0.67;;;0.43;;
14740;SDS011;7462;53.530;9.414;2022-09-01T12:14:27;2.00;;;0.60;;
14740;SDS011;7462;53.530;9.414;2022-09-01T12:17:18;1.13;;;0.60;;
14740;SDS011;7462;53.530;9.414;2022-09-01T12:19:47;2.13;;;0.70;;
14740;SDS011;7462;53.530;9.414;2022-09-01T12:22:18;0.90;;;0.60;;
14740;SDS011;7462;53.530;9.414;2022-09-01T12:24:49;2.00;;;0.80;;
14740;SDS011;7462;53.530;9.414;2022-09-01T12:27:18;2.50;;;0.60;;
14740;SDS011;7462;53.530;9.414;2022-09-01T12:29:48;1.33;;;0.80;;
14740;SDS011;7462;53.530;9.414;2022-09-01T12:32:17;0.70;;;0.50;;
14740;SDS011;7462;53.530;9.414;2022-09-01T12:34:46;0.70;;;0.50;;
14740;SDS011;7462;53.530;9.414;2022-09-01T12:37:33;1.33;;;0.60;;
14740;SDS011;7462;53.530;9.414;2022-09-01T12:40:02;2.67;;;0.87;;
14740;SDS011;7462;53.530;9.414;2022-09-01T12:42:31;1.37;;;0.60;;
14740;SDS011;7462;53.530;9.414;2022-09-01T12:45:08;1.10;;;0.70;;
14740;SDS011;7462;53.530;9.414;2022-09-01T12:47:46;2.20;;;0.70;;
14740;SDS011;7462;53.530;9.414;2022-09-01T12:53:18;0.70;;;0.63;;
14740;SDS011;7462;53.530;9.414;2022-09-01T12:55:56;1.27;;;0.80;;
14740;SDS011;7462;53.530;9.414;2022-09-01T12:58:40;1.57;;;0.60;;
14740;SDS011;7462;53.530;9.414;2022-09-01T13:01:23;0.50;;;0.50;;
14740;SDS011;7462;53.530;9.414;2022-09-01T13:04:06;1.23;;;0.77;;
14740;SDS011;7462;53.530;9.414;2022-09-01T13:06:38;1.27;;;0.70;;
14740;SDS011;7462;53.530;9.414;2022-09-01T13:09:08;1.33;;;0.60;;
14740;SDS011;7462;53.530;9.414;2022-09-01T13:11:36;1.27;;;0.70;;
14740;SDS011;7462;53.530;9.414;2022-09-01T13:14:25;1.83;;;0.60;;
14740;SDS011;7462;53.530;9.414;2022-09-01T13:16:53;1.10;;;0.80;;
14740;SDS011;7462;53.530;9.414;2022-09-01T13:19:21;1.57;;;0.60;;
14740;SDS011;7462;53.530;9.414;2022-09-01T13:21:55;1.70;;;0.67;;
14740;SDS011;7462;53.530;9.414;2022-09-01T13:24:25;0.90;;;0.50;;
14740;SDS011;7462;53.530;9.414;2022-09-01T13:26:57;1.57;;;0.60;;
14740;SDS011;7462;53.530;9.414;2022-09-01T13:29:45;2.07;;;0.67;;
14740;SDS011;7462;53.530;9.414;2022-09-01T13:32:14;0.60;;;0.60;;
14740;SDS011;7462;53.530;9.414;2022-09-01T13:34:47;2.70;;;0.70;;
14740;SDS011;7462;53.530;9.414;2022-09-01T13:37:17;0.93;;;0.70;;
14740;SDS011;7462;53.530;9.414;2022-09-01T13:39:47;1.83;;;0.80;;
14740;SDS011;7462;53.530;9.414;2022-09-01T13:42:16;1.43;;;0.70;;
14740;SDS011;7462;53.530;9.414;2022-09-01T13:44:45;1.43;;;0.80;;
14740;SDS011;7462;53.530;9.414;2022-09-01T13:47:17;1.23;;;0.67;;
14740;SDS011;7462;53.530;9.414;2022-09-01T13:50:06;2.17;;;0.67;;
14740;SDS011;7462;53.530;9.414;2022-09-01T13:52:38;1.60;;;0.97;;
14740;SDS011;7462;53.530;9.414;2022-09-01T13:55:09;3.43;;;0.80;;
14740;SDS011;7462;53.530;9.414;2022-09-01T13:57:39;0.83;;;0.83;;
14740;SDS011;7462;53.530;9.414;2022-09-01T14:00:08;2.43;;;0.67;;
14740;SDS011;7462;53.530;9.414;2022-09-01T14:02:40;0.60;;;0.60;;
14740;SDS011;7462;53.530;9.414;2022-09-01T14:05:14;2.67;;;0.80;;
14740;SDS011;7462;53.530;9.414;2022-09-01T14:07:44;1.40;;;0.60;;
14740;SDS011;7462;53.530;9.414;2022-09-01T14:10:13;2.23;;;0.80;;
14740;SDS011;7462;53.530;9.414;2022-09-01T14:12:42;1.43;;;0.60;;
14740;SDS011;7462;53.530;9.414;2022-09-01T14:15:11;0.87;;;0.60;;
14740;SDS011;7462;53.530;9.414;2022-09-01T14:17:44;0.77;;;0.60;;
14740;SDS011;7462;53.530;9.414;2022-09-01T14:20:14;1.50;;;0.67;;
14740;SDS011;7462;53.530;9.414;2022-09-01T14:22:44;1.07;;;0.70;;
14740;SDS011;7462;53.530;9.414;2022-09-01T14:25:15;1.10;;;0.80;;
14740;SDS011;7462;53.530;9.414;2022-09-01T14:27:44;0.60;;;0.50;;
14740;SDS011;7462;53.530;9.414;2022-09-01T14:30:15;1.23;;;0.60;;
14740;SDS011;7462;53.530;9.414;2022-09-01T14:32:44;0.77;;;0.70;;
14740;SDS011;7462;53.530;9.414;2022-09-01T14:35:13;1.33;;;0.90;;
14740;SDS011;7462;53.530;9.414;2022-09-01T14:37:43;1.10;;;0.70;;
14740;SDS011;7462;53.530;9.414;2022-09-01T14:40:12;0.47;;;0.47;;
14740;SDS011;7462;53.530;9.414;2022-09-01T14:42:43;1.80;;;0.80;;
14740;SDS011;7462;53.530;9.414;2022-09-01T14:45:14;0.90;;;0.60;;
14740;SDS011;7462;53.530;9.414;2022-09-01T14:47:44;0.73;;;0.67;;
14740;SDS011;7462;53.530;9.414;2022-09-01T14:50:13;2.63;;;0.80;;
14740;SDS011;7462;53.530;9.414;2022-09-01T14:52:48;2.10;;;0.90;;
14740;SDS011;7462;53.530;9.414;2022-09-01T14:55:21;0.77;;;0.60;;
14740;SDS011;7462;53.530;9.414;2022-09-01T14:57:50;0.77;;;0.60;;
14740;SDS011;7462;53.530;9.414;2022-09-01T15:00:20;1.60;;;0.77;;
14740;SDS011;7462;53.530;9.414;2022-09-01T15:02:50;1.03;;;0.70;;
14740;SDS011;7462;53.530;9.414;2022-09-01T15:05:20;3.53;;;0.53;;
14740;SDS011;7462;53.530;9.414;2022-09-01T15:07:49;1.90;;;0.60;;
14740;SDS011;7462;53.530;9.414;2022-09-01T15:10:19;1.00;;;0.70;;
14740;SDS011;7462;53.530;9.414;2022-09-01T15:12:52;1.73;;;0.70;;
14740;SDS011;7462;53.530;9.414;2022-09-01T15:15:21;1.80;;;0.60;;
14740;SDS011;7462;53.530;9.414;2022-09-01T15:17:49;0.80;;;0.50;;
14740;SDS011;7462;53.530;9.414;2022-09-01T15:20:17;1.50;;;0.77;;
14740;SDS011;7462;53.530;9.414;2022-09-01T15:23:03;0.97;;;0.50;;
14740;SDS011;7462;53.530;9.414;2022-09-01T15:25:33;1.03;;;0.73;;
14740;SDS011;7462;53.530;9.414;2022-09-01T15:28:01;2.23;;;0.80;;
14740;SDS011;7462;53.530;9.414;2022-09-01T15:30:30;1.60;;;0.70;;
14740;SDS011;7462;53.530;9.414;2022-09-01T15:32:58;3.40;;;0.87;;
14740;SDS011;7462;53.530;9.414;2022-09-01T15:35:26;0.93;;;0.70;;
14740;SDS011;7462;53.530;9.414;2022-09-01T15:37:55;0.70;;;0.63;;
14740;SDS011;7462;53.530;9.414;2022-09-01T15:40:24;2.17;;;0.70;;
14740;SDS011;7462;53.530;9.414;2022-09-01T15:42:55;1.50;;;0.60;;
14740;SDS011;7462;53.530;9.414;2022-09-01T15:45:25;2.30;;;0.77;;
14740;SDS011;7462;53.530;9.414;2022-09-01T15:47:54;1.70;;;0.70;;
14740;SDS011;7462;53.530;9.414;2022-09-01T15:50:23;0.93;;;0.60;;
14740;SDS011;7462;53.530;9.414;2022-09-01T15:52:54;0.77;;;0.70;;
14740;SDS011;7462;53.530;9.414;2022-09-01T15:55:25;1.17;;;0.77;;
14740;SDS011;7462;53.530;9.414;2022-09-01T15:57:56;0.80;;;0.60;;